createdAt,value
2016-09-14T03:00:58.638Z,1016.03
2016-09-14T03:01:24.235Z,1016.04
2016-09-14T03:02:37.624Z,1015.99
2016-09-14T03:03:03.180Z,1016.02
2016-09-14T03:03:28.764Z,1016.02
2016-09-14T03:03:54.343Z,1016
2016-09-14T03:04:19.902Z,1016.03
2016-09-14T03:04:45.479Z,1016.05
2016-09-14T03:05:11.080Z,1016.02
2016-09-14T03:05:36.654Z,1016.03
2016-09-14T03:06:34.737Z,1016.06
2016-09-14T03:07:00.306Z,1016.03
2016-09-14T03:07:25.874Z,1016
2016-09-14T03:07:51.429Z,1016.02
2016-09-14T03:08:17.026Z,1015.99
2016-09-14T03:08:42.604Z,1016.02
2016-09-14T03:09:08.262Z,1015.98
2016-09-14T03:09:33.826Z,1016.03
2016-09-14T03:09:59.382Z,1016.02
2016-09-14T03:10:24.987Z,1016
2016-09-14T03:10:50.558Z,1016.01
2016-09-14T03:11:16.145Z,1016.01
2016-09-14T03:11:41.714Z,1016
2016-09-14T03:12:07.279Z,1016.02
2016-09-14T03:12:32.851Z,1016.02
2016-09-14T03:12:58.407Z,1015.96
2016-09-14T03:13:23.983Z,1015.99
2016-09-14T03:13:49.641Z,1016
2016-09-14T03:14:15.259Z,1015.96
2016-09-14T03:14:40.808Z,1016
2016-09-14T03:15:06.386Z,1016
2016-09-14T03:15:32.046Z,1016
2016-09-14T03:15:57.614Z,1016
2016-09-14T03:16:23.241Z,1015.99
2016-09-14T03:16:48.816Z,1015.95
2016-09-14T03:17:14.381Z,1015.98
2016-09-14T03:17:39.938Z,1015.96
2016-09-14T03:18:05.514Z,1015.97
2016-09-14T03:18:31.067Z,1015.99
2016-09-14T03:18:56.647Z,1015.98
2016-09-14T03:19:22.203Z,1015.95
2016-09-14T03:19:47.777Z,1015.93
2016-09-14T03:20:13.360Z,1015.96
2016-09-14T03:20:38.930Z,1015.96
2016-09-14T03:21:04.575Z,1015.96
2016-09-14T03:21:30.143Z,1015.95
2016-09-14T03:21:55.799Z,1015.98
2016-09-14T03:22:21.485Z,1015.98
2016-09-14T03:22:47.050Z,1015.97
2016-09-14T03:23:12.661Z,1015.96
2016-09-14T03:23:39.038Z,1015.99
2016-09-14T03:24:04.594Z,1015.97
2016-09-14T03:24:30.162Z,1015.99
2016-09-14T03:24:55.729Z,1015.99
2016-09-14T03:25:21.380Z,1015.99
2016-09-14T03:25:46.998Z,1015.97
2016-09-14T03:26:12.603Z,1015.99
2016-09-14T03:26:38.193Z,1015.95
2016-09-14T03:27:03.739Z,1015.95
2016-09-14T03:27:29.282Z,1015.99
2016-09-14T03:27:54.895Z,1015.98
2016-09-14T03:28:20.466Z,1015.98
2016-09-14T03:28:46.061Z,1015.96
2016-09-14T03:29:11.658Z,1015.98
2016-09-14T03:29:37.321Z,1015.97
2016-09-14T03:30:02.874Z,1015.98
2016-09-14T03:30:28.448Z,1015.97
2016-09-14T03:30:54.015Z,1015.96
2016-09-14T03:31:19.554Z,1015.98
2016-09-14T03:31:45.100Z,1015.95
2016-09-14T03:32:10.743Z,1015.97
2016-09-14T03:32:36.303Z,1015.97
2016-09-14T03:33:01.884Z,1016
2016-09-14T03:33:27.439Z,1016.01
2016-09-14T03:34:40.857Z,1015.97
2016-09-14T03:35:06.544Z,1016.03
2016-09-14T03:35:32.190Z,1015.98
2016-09-14T03:35:57.766Z,1016
2016-09-14T03:36:23.336Z,1016.03
2016-09-14T03:36:48.984Z,1016.02
2016-09-14T03:37:14.583Z,1016.03
2016-09-14T03:37:40.157Z,1016.04
2016-09-14T03:38:05.705Z,1016
2016-09-14T03:38:31.321Z,1016.03
2016-09-14T03:38:56.885Z,1016
2016-09-14T03:39:22.462Z,1016.03
2016-09-14T03:39:48.031Z,1016.03
2016-09-14T03:40:13.583Z,1016.03
2016-09-14T03:40:39.139Z,1016.03
2016-09-14T03:41:04.703Z,1016.02
2016-09-14T03:41:30.280Z,1016.02
2016-09-14T03:41:55.842Z,1016.05
2016-09-14T03:42:21.408Z,1016.06
2016-09-14T03:42:46.970Z,1016.01
2016-09-14T03:43:12.499Z,1016
2016-09-14T03:43:38.058Z,1016.06
2016-09-14T03:44:03.668Z,1016.08
2016-09-14T03:44:29.199Z,1016.07
2016-09-14T03:44:54.753Z,1016.09
2016-09-14T03:45:20.362Z,1016.07
2016-09-14T03:45:46.082Z,1016.06
2016-09-14T03:46:11.630Z,1016.04
2016-09-14T03:46:37.204Z,1016.06
2016-09-14T03:47:02.784Z,1016.11
2016-09-14T03:47:28.343Z,1016.08
2016-09-14T03:47:53.915Z,1016.07
2016-09-14T03:48:19.503Z,1016.11
2016-09-14T03:48:45.052Z,1016.12
2016-09-14T03:49:10.630Z,1016.06
2016-09-14T03:49:36.172Z,1016.08
2016-09-14T03:50:01.738Z,1016.05
2016-09-14T03:50:27.308Z,1016.09
2016-09-14T03:50:52.883Z,1016.08
2016-09-14T03:51:18.437Z,1016.07
2016-09-14T03:51:43.997Z,1016.07
2016-09-14T03:52:09.567Z,1016.05
2016-09-14T03:52:35.133Z,1016.08
2016-09-14T03:53:00.830Z,1016.08
2016-09-14T03:53:26.374Z,1016.06
2016-09-14T03:53:51.962Z,1016.08
2016-09-14T03:54:17.580Z,1016.06
2016-09-14T03:54:43.205Z,1016.03
2016-09-14T03:55:08.752Z,1016.03
2016-09-14T03:55:34.313Z,1016.09
2016-09-14T03:56:00.058Z,1016.02
2016-09-14T03:56:25.632Z,1016.04
2016-09-14T03:56:51.197Z,1016.07
2016-09-14T03:57:59.475Z,1016.06
2016-09-14T03:58:25.040Z,1016.05
2016-09-14T03:58:50.683Z,1016.1
2016-09-14T03:59:16.247Z,1016.07
2016-09-14T03:59:41.817Z,1016.11
2016-09-14T04:00:07.378Z,1016.12
2016-09-14T04:00:32.946Z,1016.1
2016-09-14T04:00:58.542Z,1016.09
2016-09-14T04:01:24.141Z,1016.11
2016-09-14T04:01:49.719Z,1016.11
2016-09-14T04:02:15.276Z,1016.13
2016-09-14T04:02:40.842Z,1016.09
2016-09-14T04:03:06.407Z,1016.1
2016-09-14T04:03:31.976Z,1016.09
2016-09-14T04:03:57.543Z,1016.09
2016-09-14T04:04:23.091Z,1016.07
2016-09-14T04:04:48.666Z,1016.08
2016-09-14T04:05:14.224Z,1016.13
2016-09-14T04:05:39.825Z,1016.11
2016-09-14T04:06:05.412Z,1016.08
2016-09-14T04:06:30.984Z,1016.11
2016-09-14T04:06:56.554Z,1016.11
2016-09-14T04:07:22.145Z,1016.09
2016-09-14T04:07:47.745Z,1016.08
2016-09-14T04:10:27.945Z,1016.07
2016-09-14T04:11:01.327Z,1016.06
2016-09-14T04:11:26.886Z,1016.04
2016-09-14T04:11:52.454Z,1016.08
2016-09-14T04:12:18.081Z,1016.06
2016-09-14T04:12:43.635Z,1016.08
2016-09-14T04:13:09.271Z,1016.08
2016-09-14T04:13:34.837Z,1016.06
2016-09-14T04:14:00.407Z,1016.06
2016-09-14T04:14:26.003Z,1016.07
2016-09-14T04:14:51.589Z,1016.02
2016-09-14T04:15:17.149Z,1016.04
2016-09-14T04:15:42.772Z,1016.04
2016-09-14T04:16:08.343Z,1016.07
2016-09-14T04:16:33.926Z,1016.06
2016-09-14T04:16:59.472Z,1016.06
2016-09-14T04:17:25.075Z,1016.07
2016-09-14T04:17:50.644Z,1016.08
2016-09-14T04:18:16.202Z,1016.05
2016-09-14T04:18:41.767Z,1016.07
2016-09-14T04:19:07.380Z,1016.06
2016-09-14T04:20:05.471Z,1016.12
2016-09-14T04:20:31.081Z,1016.11
2016-09-14T04:20:56.632Z,1016.07
2016-09-14T04:21:22.194Z,1016.07
2016-09-14T04:21:47.879Z,1016.08
2016-09-14T04:22:13.462Z,1016.07
2016-09-14T04:22:39.023Z,1016.07
2016-09-14T04:23:04.697Z,1016.09
2016-09-14T04:23:30.283Z,1016.09
2016-09-14T04:23:55.852Z,1016.09
2016-09-14T04:24:21.419Z,1016.09
2016-09-14T04:24:47.082Z,1016.06
2016-09-14T04:25:12.647Z,1016.11
2016-09-14T04:25:38.222Z,1016.11
2016-09-14T04:26:03.862Z,1016.08
2016-09-14T04:26:29.572Z,1016.08
2016-09-14T04:26:55.264Z,1016.1
2016-09-14T04:27:20.833Z,1016.1
2016-09-14T04:27:46.400Z,1016.11
2016-09-14T04:28:12.127Z,1016.09
2016-09-14T04:28:37.683Z,1016.08
2016-09-14T04:29:03.274Z,1016.11
2016-09-14T04:29:28.838Z,1016.12
2016-09-14T04:29:54.371Z,1016.08
2016-09-14T04:30:19.936Z,1016.12
2016-09-14T04:30:45.506Z,1016.1
2016-09-14T04:31:11.061Z,1016.11
2016-09-14T04:31:36.725Z,1016.12
2016-09-14T04:32:02.299Z,1016.14
2016-09-14T04:32:27.867Z,1016.1
2016-09-14T04:32:53.472Z,1016.11
2016-09-14T04:33:19.077Z,1016.09
2016-09-14T04:33:44.636Z,1016.11
2016-09-14T04:34:10.200Z,1016.09
2016-09-14T04:34:35.822Z,1016.07
2016-09-14T04:35:01.457Z,1016.12
2016-09-14T04:35:27.022Z,1016.09
2016-09-14T04:35:52.579Z,1016.12
2016-09-14T04:36:18.152Z,1016.08
2016-09-14T04:36:43.722Z,1016.08
2016-09-14T04:37:09.388Z,1016.07
2016-09-14T04:37:35.517Z,1016.06
2016-09-14T04:38:01.086Z,1016.09
2016-09-14T04:38:26.655Z,1016.05
2016-09-14T04:38:52.322Z,1016.09
2016-09-14T04:39:17.883Z,1016.07
2016-09-14T04:39:43.506Z,1016.04
2016-09-14T04:40:09.073Z,1016.05
2016-09-14T04:40:34.640Z,1016.09
2016-09-14T04:41:00.219Z,1016.09
2016-09-14T04:41:25.803Z,1016.08
2016-09-14T04:41:51.367Z,1016.06
2016-09-14T04:42:16.993Z,1016.07
2016-09-14T04:42:42.571Z,1016.06
2016-09-14T04:43:08.138Z,1016.07
2016-09-14T04:43:33.782Z,1016.1
2016-09-14T04:44:42.106Z,1016.11
2016-09-14T04:45:07.705Z,1016.11
2016-09-14T04:45:33.260Z,1016.14
2016-09-14T04:45:58.822Z,1016.11
2016-09-14T04:46:24.409Z,1016.14
2016-09-14T04:46:49.961Z,1016.11
2016-09-14T04:47:15.546Z,1016.13
2016-09-14T04:47:41.123Z,1016.1
2016-09-14T04:48:06.694Z,1016.12
2016-09-14T04:48:32.295Z,1016.11
2016-09-14T04:48:57.870Z,1016.13
2016-09-14T04:49:23.424Z,1016.16
2016-09-14T04:49:49.040Z,1016.14
2016-09-14T04:50:14.685Z,1016.14
2016-09-14T04:50:40.257Z,1016.15
2016-09-14T04:51:05.830Z,1016.16
2016-09-14T04:51:31.395Z,1016.14
2016-09-14T04:51:56.981Z,1016.12
2016-09-14T04:52:22.615Z,1016.12
2016-09-14T04:52:48.239Z,1016.14
2016-09-14T04:53:13.826Z,1016.12
2016-09-14T04:53:39.386Z,1016.13
2016-09-14T04:54:04.976Z,1016.16
2016-09-14T04:54:30.532Z,1016.16
2016-09-14T04:54:56.094Z,1016.17
2016-09-14T04:55:21.663Z,1016.17
2016-09-14T04:55:47.257Z,1016.15
2016-09-14T04:56:12.878Z,1016.14
2016-09-14T04:56:38.441Z,1016.17
2016-09-14T04:57:04.009Z,1016.17
2016-09-14T04:57:29.593Z,1016.17
2016-09-14T04:57:55.168Z,1016.2
2016-09-14T04:58:20.762Z,1016.19
2016-09-14T04:58:46.347Z,1016.18
2016-09-14T04:59:11.912Z,1016.16
2016-09-14T04:59:37.485Z,1016.18
2016-09-14T05:00:03.043Z,1016.21
2016-09-14T05:00:28.605Z,1016.17
2016-09-14T05:00:54.192Z,1016.23
2016-09-14T05:01:19.791Z,1016.15
2016-09-14T05:01:45.349Z,1016.21
2016-09-14T05:02:11.001Z,1016.19
2016-09-14T05:02:36.668Z,1016.19
2016-09-14T05:03:02.241Z,1016.2
2016-09-14T05:03:28.018Z,1016.21
2016-09-14T05:03:53.613Z,1016.18
2016-09-14T05:04:19.192Z,1016.2
2016-09-14T05:04:44.805Z,1016.22
2016-09-14T05:05:10.357Z,1016.22
2016-09-14T05:05:35.946Z,1016.22
2016-09-14T05:06:01.501Z,1016.22
2016-09-14T05:06:27.087Z,1016.21
2016-09-14T05:06:52.742Z,1016.21
2016-09-14T05:07:18.297Z,1016.24
2016-09-14T05:07:43.863Z,1016.2
2016-09-14T05:08:09.421Z,1016.23
2016-09-14T05:08:35.030Z,1016.23
2016-09-14T05:09:00.604Z,1016.21
2016-09-14T05:09:26.174Z,1016.23
2016-09-14T05:09:51.714Z,1016.2
2016-09-14T05:10:17.278Z,1016.18
2016-09-14T05:10:42.864Z,1016.17
2016-09-14T05:11:08.422Z,1016.19
2016-09-14T05:11:34.007Z,1016.21
2016-09-14T05:11:59.584Z,1016.22
2016-09-14T05:12:25.208Z,1016.21
2016-09-14T05:12:50.826Z,1016.2
2016-09-14T05:13:16.400Z,1016.21
2016-09-14T05:13:41.957Z,1016.13
2016-09-14T05:14:07.680Z,1016.21
2016-09-14T05:14:33.264Z,1016.19
2016-09-14T05:14:58.844Z,1016.22
2016-09-14T05:15:24.432Z,1016.21
2016-09-14T05:15:50.228Z,1016.19
2016-09-14T05:16:15.775Z,1016.21
2016-09-14T05:16:41.334Z,1016.18
2016-09-14T05:17:07.004Z,1016.2
2016-09-14T05:17:32.582Z,1016.2
2016-09-14T05:17:58.221Z,1016.2
2016-09-14T05:18:23.757Z,1016.19
2016-09-14T05:18:49.321Z,1016.2
2016-09-14T05:19:14.923Z,1016.17
2016-09-14T05:19:40.471Z,1016.2
2016-09-14T05:20:06.020Z,1016.23
2016-09-14T05:20:31.577Z,1016.19
2016-09-14T05:20:57.168Z,1016.21
2016-09-14T05:21:22.736Z,1016.22
2016-09-14T05:21:48.295Z,1016.24
2016-09-14T05:22:13.868Z,1016.22
2016-09-14T05:22:39.452Z,1016.22
2016-09-14T05:23:05.015Z,1016.23
2016-09-14T05:23:30.592Z,1016.24
2016-09-14T05:23:56.213Z,1016.2
2016-09-14T05:24:21.822Z,1016.24
2016-09-14T05:24:47.395Z,1016.26
2016-09-14T05:25:12.977Z,1016.21
2016-09-14T05:25:38.560Z,1016.25
2016-09-14T05:26:04.120Z,1016.23
2016-09-14T05:26:29.687Z,1016.21
2016-09-14T05:26:55.259Z,1016.22
2016-09-14T05:27:20.812Z,1016.23
2016-09-14T05:27:46.455Z,1016.22
2016-09-14T05:28:12.032Z,1016.22
2016-09-14T05:28:37.592Z,1016.24
2016-09-14T05:29:03.144Z,1016.23
2016-09-14T05:29:28.708Z,1016.23
2016-09-14T05:29:54.329Z,1016.22
2016-09-14T05:30:19.973Z,1016.2
2016-09-14T05:30:45.541Z,1016.21
2016-09-14T05:31:11.109Z,1016.21
2016-09-14T05:31:36.681Z,1016.26
2016-09-14T05:32:02.253Z,1016.25
2016-09-14T05:32:27.940Z,1016.24
2016-09-14T05:32:53.523Z,1016.24
2016-09-14T05:33:19.122Z,1016.25
2016-09-14T05:33:44.679Z,1016.25
2016-09-14T05:34:42.844Z,1016.23
2016-09-14T05:35:41.273Z,1016.25
2016-09-14T05:36:06.836Z,1016.25
2016-09-14T05:36:32.423Z,1016.26
2016-09-14T05:36:58.097Z,1016.27
2016-09-14T05:37:23.654Z,1016.28
2016-09-14T05:37:49.211Z,1016.26
2016-09-14T05:38:14.774Z,1016.26
2016-09-14T05:38:40.433Z,1016.28
2016-09-14T05:39:48.728Z,1016.28
2016-09-14T05:40:14.306Z,1016.27
2016-09-14T05:40:39.892Z,1016.25
2016-09-14T05:41:05.485Z,1016.23
2016-09-14T05:41:31.205Z,1016.26
2016-09-14T05:41:56.618Z,1016.21
2016-09-14T05:42:22.183Z,1016.22
2016-09-14T05:43:35.630Z,1016.22
2016-09-14T05:44:01.286Z,1016.25
2016-09-14T05:44:26.881Z,1016.24
2016-09-14T05:44:52.539Z,1016.28
2016-09-14T05:45:18.108Z,1016.28
2016-09-14T05:45:43.724Z,1016.26
2016-09-14T05:46:09.292Z,1016.29
2016-09-14T05:46:34.864Z,1016.27
2016-09-14T05:47:00.474Z,1016.29
2016-09-14T05:47:26.030Z,1016.27
2016-09-14T05:47:51.630Z,1016.29
2016-09-14T05:48:17.196Z,1016.3
2016-09-14T05:48:42.756Z,1016.28
2016-09-14T05:49:08.331Z,1016.31
2016-09-14T05:49:33.891Z,1016.32
2016-09-14T05:49:59.480Z,1016.35
2016-09-14T05:50:25.019Z,1016.35
2016-09-14T05:50:50.573Z,1016.31
2016-09-14T05:51:16.158Z,1016.33
2016-09-14T05:51:41.686Z,1016.37
2016-09-14T05:52:07.253Z,1016.37
2016-09-14T05:52:32.800Z,1016.35
2016-09-14T05:52:58.350Z,1016.36
2016-09-14T05:53:23.909Z,1016.36
2016-09-14T05:53:49.485Z,1016.38
2016-09-14T05:54:15.104Z,1016.36
2016-09-14T05:54:40.673Z,1016.34
2016-09-14T05:55:06.308Z,1016.36
2016-09-14T05:55:31.874Z,1016.34
2016-09-14T05:55:57.454Z,1016.35
2016-09-14T05:56:22.998Z,1016.35
2016-09-14T05:56:48.581Z,1016.34
2016-09-14T05:57:14.158Z,1016.37
2016-09-14T05:57:39.713Z,1016.36
2016-09-14T05:58:05.268Z,1016.33
2016-09-14T05:58:30.817Z,1016.35
2016-09-14T05:58:56.391Z,1016.35
2016-09-14T05:59:22.057Z,1016.37
2016-09-14T05:59:47.665Z,1016.37
2016-09-14T06:00:13.244Z,1016.35
2016-09-14T06:01:31.874Z,1016.38
2016-09-14T06:01:57.473Z,1016.39
2016-09-14T06:02:23.042Z,1016.4
2016-09-14T06:02:48.612Z,1016.38
2016-09-14T06:03:14.217Z,1016.35
2016-09-14T06:03:39.794Z,1016.37
2016-09-14T06:04:05.363Z,1016.37
2016-09-14T06:04:30.919Z,1016.39
2016-09-14T06:04:56.558Z,1016.4
2016-09-14T06:05:22.132Z,1016.41
2016-09-14T06:05:47.799Z,1016.41
2016-09-14T06:06:13.348Z,1016.45
2016-09-14T06:06:38.886Z,1016.42
2016-09-14T06:07:04.437Z,1016.44
2016-09-14T06:08:22.963Z,1016.44
2016-09-14T06:08:48.606Z,1016.44
2016-09-14T06:09:14.168Z,1016.42
2016-09-14T06:09:39.709Z,1016.48
2016-09-14T06:10:05.254Z,1016.44
2016-09-14T06:10:30.825Z,1016.45
2016-09-14T06:10:56.388Z,1016.45
2016-09-14T06:11:21.922Z,1016.47
2016-09-14T06:11:47.485Z,1016.43
2016-09-14T06:12:13.078Z,1016.45
2016-09-14T06:12:38.671Z,1016.46
2016-09-14T06:13:04.215Z,1016.44
2016-09-14T06:13:29.825Z,1016.42
2016-09-14T06:13:55.406Z,1016.45
2016-09-14T06:14:20.963Z,1016.44
2016-09-14T06:14:46.700Z,1016.47
2016-09-14T06:15:12.249Z,1016.41
2016-09-14T06:15:37.805Z,1016.44
2016-09-14T06:16:03.395Z,1016.46
2016-09-14T06:16:28.956Z,1016.42
2016-09-14T06:16:54.526Z,1016.43
2016-09-14T06:17:20.115Z,1016.42
2016-09-14T06:17:45.681Z,1016.43
2016-09-14T06:18:11.246Z,1016.41
2016-09-14T06:18:36.857Z,1016.43
2016-09-14T06:19:02.416Z,1016.39
2016-09-14T06:19:27.985Z,1016.42
2016-09-14T06:19:53.519Z,1016.41
2016-09-14T06:20:19.081Z,1016.39
2016-09-14T06:20:44.655Z,1016.38
2016-09-14T06:21:10.216Z,1016.41
2016-09-14T06:21:35.816Z,1016.4
2016-09-14T06:22:01.355Z,1016.4
2016-09-14T06:22:26.984Z,1016.39
2016-09-14T06:22:52.556Z,1016.42
2016-09-14T06:23:18.224Z,1016.39
2016-09-14T06:23:43.796Z,1016.41
2016-09-14T06:24:09.347Z,1016.38
2016-09-14T06:24:35.020Z,1016.4
2016-09-14T06:25:00.632Z,1016.41
2016-09-14T06:25:26.210Z,1016.38
2016-09-14T06:25:51.785Z,1016.42
2016-09-14T06:26:17.411Z,1016.43
2016-09-14T06:26:42.951Z,1016.42
2016-09-14T06:27:08.528Z,1016.4
2016-09-14T06:27:34.096Z,1016.38
2016-09-14T06:27:59.691Z,1016.44
2016-09-14T06:28:25.243Z,1016.39
2016-09-14T06:28:50.993Z,1016.41
2016-09-14T06:29:16.380Z,1016.4
2016-09-14T06:29:41.971Z,1016.42
2016-09-14T06:30:07.532Z,1016.41
2016-09-14T06:30:33.103Z,1016.41
2016-09-14T06:30:58.663Z,1016.41
2016-09-14T06:31:24.236Z,1016.44
2016-09-14T06:31:49.818Z,1016.41
2016-09-14T06:32:15.486Z,1016.42
2016-09-14T06:32:41.052Z,1016.47
2016-09-14T06:33:06.630Z,1016.47
2016-09-14T06:33:32.205Z,1016.43
2016-09-14T06:33:57.778Z,1016.4
2016-09-14T06:34:23.328Z,1016.4
2016-09-14T06:34:48.896Z,1016.42
2016-09-14T06:35:14.452Z,1016.44
2016-09-14T06:35:40.028Z,1016.4
2016-09-14T06:36:05.618Z,1016.36
2016-09-14T06:36:31.324Z,1016.44
2016-09-14T06:36:56.889Z,1016.41
2016-09-14T06:37:22.480Z,1016.39
2016-09-14T06:37:48.046Z,1016.41
2016-09-14T06:38:13.618Z,1016.38
2016-09-14T06:38:39.211Z,1016.4
2016-09-14T06:39:04.798Z,1016.41
2016-09-14T06:39:30.375Z,1016.41
2016-09-14T06:39:55.938Z,1016.42
2016-09-14T06:40:21.566Z,1016.44
2016-09-14T06:40:47.136Z,1016.43
2016-09-14T06:41:12.709Z,1016.38
2016-09-14T06:41:38.288Z,1016.43
2016-09-14T06:42:03.844Z,1016.44
2016-09-14T06:42:29.408Z,1016.42
2016-09-14T06:42:54.976Z,1016.43
2016-09-14T06:43:20.536Z,1016.4
2016-09-14T06:43:46.133Z,1016.44
2016-09-14T06:44:11.715Z,1016.44
2016-09-14T06:44:37.310Z,1016.42
2016-09-14T06:45:02.874Z,1016.43
2016-09-14T06:45:28.444Z,1016.4
2016-09-14T06:45:54.016Z,1016.42
2016-09-14T06:46:19.706Z,1016.42
2016-09-14T06:46:45.385Z,1016.42
2016-09-14T06:47:10.946Z,1016.43
2016-09-14T06:47:36.582Z,1016.43
2016-09-14T06:48:02.147Z,1016.4
2016-09-14T06:48:27.724Z,1016.44
2016-09-14T06:48:53.289Z,1016.44
2016-09-14T06:49:18.915Z,1016.43
2016-09-14T06:49:44.497Z,1016.43
2016-09-14T06:50:10.070Z,1016.44
2016-09-14T06:50:35.634Z,1016.43
2016-09-14T06:51:01.407Z,1016.43
2016-09-14T06:51:26.972Z,1016.45
2016-09-14T06:51:52.551Z,1016.46
2016-09-14T06:52:18.172Z,1016.43
2016-09-14T06:52:43.718Z,1016.42
2016-09-14T06:53:09.271Z,1016.43
2016-09-14T06:53:34.840Z,1016.46
2016-09-14T06:54:43.187Z,1016.4
2016-09-14T06:55:08.748Z,1016.45
2016-09-14T06:55:34.295Z,1016.44
2016-09-14T06:55:59.888Z,1016.44
2016-09-14T06:56:25.446Z,1016.39
2016-09-14T06:56:51.008Z,1016.41
2016-09-14T06:57:16.601Z,1016.36
2016-09-14T06:57:42.172Z,1016.44
2016-09-14T06:58:07.736Z,1016.4
2016-09-14T06:58:33.401Z,1016.37
2016-09-14T06:58:58.972Z,1016.42
2016-09-14T06:59:24.573Z,1016.39
2016-09-14T06:59:50.186Z,1016.37
2016-09-14T07:00:15.719Z,1016.38
2016-09-14T07:00:41.298Z,1016.41
2016-09-14T07:01:06.901Z,1016.34
2016-09-14T07:01:32.473Z,1016.4
2016-09-14T07:01:58.032Z,1016.4
2016-09-14T07:02:23.655Z,1016.38
2016-09-14T07:02:49.212Z,1016.39
2016-09-14T07:03:14.785Z,1016.37
2016-09-14T07:03:40.350Z,1016.39
2016-09-14T07:04:05.919Z,1016.4
2016-09-14T07:04:31.466Z,1016.41
2016-09-14T07:04:57.018Z,1016.39
2016-09-14T07:05:22.620Z,1016.39
2016-09-14T07:05:48.181Z,1016.4
2016-09-14T07:06:13.747Z,1016.37
2016-09-14T07:06:39.317Z,1016.4
2016-09-14T07:07:04.916Z,1016.4
2016-09-14T07:07:30.506Z,1016.39
2016-09-14T07:07:56.066Z,1016.43
2016-09-14T07:08:21.616Z,1016.45
2016-09-14T07:08:47.191Z,1016.41
2016-09-14T07:09:12.740Z,1016.43
2016-09-14T07:09:38.316Z,1016.4
2016-09-14T07:10:03.907Z,1016.43
2016-09-14T07:10:29.468Z,1016.42
2016-09-14T07:10:55.039Z,1016.4
2016-09-14T07:11:20.617Z,1016.38
2016-09-14T07:11:46.176Z,1016.38
2016-09-14T07:12:11.763Z,1016.46
2016-09-14T07:12:37.341Z,1016.44
2016-09-14T07:13:02.917Z,1016.46
2016-09-14T07:13:28.536Z,1016.44
2016-09-14T07:13:54.114Z,1016.45
2016-09-14T07:14:19.799Z,1016.46
2016-09-14T07:14:45.357Z,1016.46
2016-09-14T07:15:10.919Z,1016.46
2016-09-14T07:15:36.494Z,1016.49
2016-09-14T07:16:02.063Z,1016.49
2016-09-14T07:16:27.667Z,1016.53
2016-09-14T07:16:53.230Z,1016.52
2016-09-14T07:17:18.809Z,1016.55
2016-09-14T07:17:44.368Z,1016.56
2016-09-14T07:18:09.924Z,1016.55
2016-09-14T07:18:35.649Z,1016.52
2016-09-14T07:19:01.235Z,1016.58
2016-09-14T07:19:26.795Z,1016.57
2016-09-14T07:19:52.328Z,1016.55
2016-09-14T07:20:17.906Z,1016.56
2016-09-14T07:20:43.491Z,1016.56
2016-09-14T07:21:09.197Z,1016.58
2016-09-14T07:21:34.921Z,1016.58
2016-09-14T07:22:00.509Z,1016.58
2016-09-14T07:22:26.131Z,1016.53
2016-09-14T07:22:51.774Z,1016.54
2016-09-14T07:23:17.347Z,1016.5
2016-09-14T07:23:43.090Z,1016.49
2016-09-14T07:24:08.716Z,1016.53
2016-09-14T07:24:34.259Z,1016.51
2016-09-14T07:24:59.905Z,1016.56
2016-09-14T07:25:25.512Z,1016.54
2016-09-14T07:26:44.048Z,1016.52
2016-09-14T07:27:09.669Z,1016.46
2016-09-14T07:27:35.291Z,1016.49
2016-09-14T07:28:00.848Z,1016.51
2016-09-14T07:28:26.398Z,1016.48
2016-09-14T07:28:52.066Z,1016.48
2016-09-14T07:29:17.647Z,1016.47
2016-09-14T07:29:43.239Z,1016.48
2016-09-14T07:30:08.834Z,1016.44
2016-09-14T07:30:34.469Z,1016.41
2016-09-14T07:31:00.067Z,1016.45
2016-09-14T07:31:25.660Z,1016.43
2016-09-14T07:32:44.241Z,1016.41
2016-09-14T07:33:09.813Z,1016.43
2016-09-14T07:33:35.367Z,1016.45
2016-09-14T07:34:48.923Z,1016.39
2016-09-14T07:35:46.999Z,1016.5
2016-09-14T07:36:12.563Z,1016.49
2016-09-14T07:36:38.145Z,1016.5
2016-09-14T07:37:03.707Z,1016.49
2016-09-14T07:37:29.355Z,1016.48
2016-09-14T07:37:54.922Z,1016.47
2016-09-14T07:38:20.476Z,1016.55
2016-09-14T07:38:46.046Z,1016.52
2016-09-14T07:39:11.604Z,1016.54
2016-09-14T07:39:37.196Z,1016.53
2016-09-14T07:40:02.777Z,1016.53
2016-09-14T07:40:28.400Z,1016.55
2016-09-14T07:40:53.979Z,1016.59
2016-09-14T07:41:19.528Z,1016.53
2016-09-14T07:41:45.099Z,1016.57
2016-09-14T07:42:10.660Z,1016.56
2016-09-14T07:42:36.208Z,1016.56
2016-09-14T07:43:01.799Z,1016.55
2016-09-14T07:43:27.463Z,1016.58
2016-09-14T07:43:53.007Z,1016.54
2016-09-14T07:44:18.591Z,1016.58
2016-09-14T07:44:44.153Z,1016.6
2016-09-14T07:45:09.721Z,1016.57
2016-09-14T07:45:35.335Z,1016.61
2016-09-14T07:46:00.900Z,1016.59
2016-09-14T07:46:26.487Z,1016.59
2016-09-14T07:46:52.139Z,1016.59
2016-09-14T07:47:17.722Z,1016.56
2016-09-14T07:47:43.352Z,1016.61
2016-09-14T07:48:08.926Z,1016.63
2016-09-14T07:48:34.536Z,1016.64
2016-09-14T07:49:00.179Z,1016.65
2016-09-14T07:49:25.730Z,1016.64
2016-09-14T07:49:51.307Z,1016.62
2016-09-14T07:50:16.873Z,1016.63
2016-09-14T07:50:42.446Z,1016.61
2016-09-14T07:51:08.020Z,1016.62
2016-09-14T07:51:33.649Z,1016.6
2016-09-14T07:51:59.210Z,1016.61
2016-09-14T07:52:24.792Z,1016.62
2016-09-14T07:52:50.397Z,1016.63
2016-09-14T07:53:15.958Z,1016.63
2016-09-14T07:53:41.525Z,1016.67
2016-09-14T07:54:07.096Z,1016.67
2016-09-14T07:54:32.672Z,1016.66
2016-09-14T07:54:58.364Z,1016.69
2016-09-14T07:55:23.934Z,1016.71
2016-09-14T07:55:49.505Z,1016.7
2016-09-14T07:56:15.078Z,1016.68
2016-09-14T07:56:40.648Z,1016.69
2016-09-14T07:57:06.206Z,1016.7
2016-09-14T07:57:31.758Z,1016.68
2016-09-14T07:57:57.317Z,1016.72
2016-09-14T07:58:22.877Z,1016.67
2016-09-14T07:58:48.546Z,1016.73
2016-09-14T07:59:14.126Z,1016.71
2016-09-14T07:59:39.707Z,1016.7
2016-09-14T08:00:05.272Z,1016.72
2016-09-14T08:00:30.902Z,1016.72
2016-09-14T08:00:56.503Z,1016.69
2016-09-14T08:01:22.169Z,1016.68
2016-09-14T08:01:47.731Z,1016.7
2016-09-14T08:02:13.389Z,1016.7
2016-09-14T08:02:38.960Z,1016.66
2016-09-14T08:03:04.576Z,1016.67
2016-09-14T08:03:30.139Z,1016.65
2016-09-14T08:03:55.703Z,1016.74
2016-09-14T08:04:21.265Z,1016.7
2016-09-14T08:04:46.878Z,1016.71
2016-09-14T08:05:12.465Z,1016.68
2016-09-14T08:05:38.139Z,1016.67
2016-09-14T08:06:03.765Z,1016.7
2016-09-14T08:06:29.337Z,1016.69
2016-09-14T08:06:54.920Z,1016.69
2016-09-14T08:07:20.522Z,1016.72
2016-09-14T08:07:46.080Z,1016.72
2016-09-14T08:08:11.775Z,1016.72
2016-09-14T08:08:37.438Z,1016.69
2016-09-14T08:09:03.007Z,1016.75
2016-09-14T08:09:28.698Z,1016.76
2016-09-14T08:09:54.276Z,1016.76
2016-09-14T08:10:19.842Z,1016.75
2016-09-14T08:10:45.425Z,1016.75
2016-09-14T08:11:10.983Z,1016.72
2016-09-14T08:11:36.667Z,1016.76
2016-09-14T08:12:02.221Z,1016.76
2016-09-14T08:12:27.807Z,1016.77
2016-09-14T08:12:53.383Z,1016.72
2016-09-14T08:13:19.127Z,1016.76
2016-09-14T08:13:44.680Z,1016.77
2016-09-14T08:14:10.239Z,1016.77
2016-09-14T08:14:35.797Z,1016.75
2016-09-14T08:15:01.357Z,1016.77
2016-09-14T08:15:26.939Z,1016.76
2016-09-14T08:15:52.619Z,1016.77
2016-09-14T08:16:18.187Z,1016.74
2016-09-14T08:16:43.752Z,1016.73
2016-09-14T08:17:09.438Z,1016.74
2016-09-14T08:17:35.020Z,1016.69
2016-09-14T08:18:00.578Z,1016.7
2016-09-14T08:18:26.125Z,1016.71
2016-09-14T08:18:51.687Z,1016.76
2016-09-14T08:19:17.224Z,1016.7
2016-09-14T08:19:42.823Z,1016.71
2016-09-14T08:20:08.372Z,1016.7
2016-09-14T08:20:33.942Z,1016.73
2016-09-14T08:20:59.585Z,1016.71
2016-09-14T08:21:25.153Z,1016.71
2016-09-14T08:21:50.719Z,1016.7
2016-09-14T08:22:16.976Z,1016.7
2016-09-14T08:22:42.535Z,1016.72
2016-09-14T08:23:08.763Z,1016.72
2016-09-14T08:23:34.326Z,1016.7
2016-09-14T08:23:59.894Z,1016.71
2016-09-14T08:24:26.084Z,1016.7
2016-09-14T08:24:51.644Z,1016.73
2016-09-14T08:25:17.950Z,1016.7
2016-09-14T08:25:43.543Z,1016.72
2016-09-14T08:26:09.651Z,1016.71
2016-09-14T08:26:35.226Z,1016.71